sensor_id;sensor_type;location;lat;lon;timestamp;temperature;humidity
27797;DHT22;15177;50.844;4.412;2023-04-07T00:00:33;10.40;99.90
27797;DHT22;15177;50.844;4.412;2023-04-07T00:02:59;10.40;99.90
27797;DHT22;15177;50.844;4.412;2023-04-07T00:05:26;10.40;99.90
27797;DHT22;15177;50.844;4.412;2023-04-07T00:07:52;10.50;99.90
27797;DHT22;15177;50.844;4.412;2023-04-07T00:10:17;10.60;99.90
27797;DHT22;15177;50.844;4.412;2023-04-07T00:12:43;10.60;99.90
27797;DHT22;15177;50.844;4.412;2023-04-07T00:15:09;10.60;99.90
27797;DHT22;15177;50.844;4.412;2023-04-07T00:17:35;10.60;99.90
27797;DHT22;15177;50.844;4.412;2023-04-07T00:20:00;10.70;99.90
27797;DHT22;15177;50.844;4.412;2023-04-07T00:22:26;10.60;99.90
27797;DHT22;15177;50.844;4.412;2023-04-07T00:24:52;10.50;99.90
27797;DHT22;15177;50.844;4.412;2023-04-07T00:27:17;10.40;99.90
27797;DHT22;15177;50.844;4.412;2023-04-07T00:29:43;10.30;99.90
27797;DHT22;15177;50.844;4.412;2023-04-07T00:32:11;10.30;99.90
27797;DHT22;15177;50.844;4.412;2023-04-07T00:34:36;10.40;99.90
27797;DHT22;15177;50.844;4.412;2023-04-07T00:37:02;10.30;99.90
27797;DHT22;15177;50.844;4.412;2023-04-07T00:39:27;10.30;99.90
27797;DHT22;15177;50.844;4.412;2023-04-07T00:41:53;10.30;99.90
27797;DHT22;15177;50.844;4.412;2023-04-07T00:44:19;10.40;99.90
27797;DHT22;15177;50.844;4.412;2023-04-07T00:46:46;10.40;99.90
27797;DHT22;15177;50.844;4.412;2023-04-07T00:49:12;10.30;99.90
27797;DHT22;15177;50.844;4.412;2023-04-07T00:51:38;10.40;99.90
27797;DHT22;15177;50.844;4.412;2023-04-07T00:54:04;10.30;99.90
27797;DHT22;15177;50.844;4.412;2023-04-07T00:56:31;10.30;99.90
27797;DHT22;15177;50.844;4.412;2023-04-07T00:58:56;10.30;99.90
27797;DHT22;15177;50.844;4.412;2023-04-07T01:01:25;10.40;99.90
27797;DHT22;15177;50.844;4.412;2023-04-07T01:03:57;10.30;99.90
27797;DHT22;15177;50.844;4.412;2023-04-07T01:06:26;10.30;99.90
27797;DHT22;15177;50.844;4.412;2023-04-07T01:11:41;10.40;99.90
27797;DHT22;15177;50.844;4.412;2023-04-07T01:14:09;10.40;99.90
27797;DHT22;15177;50.844;4.412;2023-04-07T01:16:47;10.40;99.90
27797;DHT22;15177;50.844;4.412;2023-04-07T01:19:37;10.50;99.90
27797;DHT22;15177;50.844;4.412;2023-04-07T01:22:11;10.40;99.90
27797;DHT22;15177;50.844;4.412;2023-04-07T01:30:23;10.30;99.90
27797;DHT22;15177;50.844;4.412;2023-04-07T01:32:54;10.30;99.90
27797;DHT22;15177;50.844;4.412;2023-04-07T01:35:21;10.30;99.90
27797;DHT22;15177;50.844;4.412;2023-04-07T01:37:48;10.30;99.90
27797;DHT22;15177;50.844;4.412;2023-04-07T01:40:15;10.40;99.90
27797;DHT22;15177;50.844;4.412;2023-04-07T01:42:42;10.30;99.90
27797;DHT22;15177;50.844;4.412;2023-04-07T01:45:09;10.20;99.90
27797;DHT22;15177;50.844;4.412;2023-04-07T01:47:37;10.30;99.90
27797;DHT22;15177;50.844;4.412;2023-04-07T01:50:04;10.30;99.90
27797;DHT22;15177;50.844;4.412;2023-04-07T01:52:32;10.30;99.90
27797;DHT22;15177;50.844;4.412;2023-04-07T01:54:58;10.30;99.90
27797;DHT22;15177;50.844;4.412;2023-04-07T01:57:23;10.20;99.90
27797;DHT22;15177;50.844;4.412;2023-04-07T01:59:49;10.10;99.90
27797;DHT22;15177;50.844;4.412;2023-04-07T02:02:15;10.20;99.90
27797;DHT22;15177;50.844;4.412;2023-04-07T02:04:54;10.50;99.90
27797;DHT22;15177;50.844;4.412;2023-04-07T02:10:14;10.40;99.90
27797;DHT22;15177;50.844;4.412;2023-04-07T02:12:41;10.40;99.90
27797;DHT22;15177;50.844;4.412;2023-04-07T02:15:10;10.30;99.90
27797;DHT22;15177;50.844;4.412;2023-04-07T02:17:40;10.30;99.90
27797;DHT22;15177;50.844;4.412;2023-04-07T02:20:07;10.20;99.90
27797;DHT22;15177;50.844;4.412;2023-04-07T02:22:34;10.30;99.90
27797;DHT22;15177;50.844;4.412;2023-04-07T02:25:00;10.30;99.90
27797;DHT22;15177;50.844;4.412;2023-04-07T02:27:26;10.30;99.90
27797;DHT22;15177;50.844;4.412;2023-04-07T02:29:51;10.30;99.90
27797;DHT22;15177;50.844;4.412;2023-04-07T02:32:17;10.40;99.90
27797;DHT22;15177;50.844;4.412;2023-04-07T02:34:43;10.30;99.90
27797;DHT22;15177;50.844;4.412;2023-04-07T02:37:08;10.20;99.90
27797;DHT22;15177;50.844;4.412;2023-04-07T02:39:34;10.10;99.90
27797;DHT22;15177;50.844;4.412;2023-04-07T02:42:00;10.10;99.90
27797;DHT22;15177;50.844;4.412;2023-04-07T02:44:25;10.10;99.90
27797;DHT22;15177;50.844;4.412;2023-04-07T02:46:51;10.10;99.90
27797;DHT22;15177;50.844;4.412;2023-04-07T02:49:17;10.20;99.90
27797;DHT22;15177;50.844;4.412;2023-04-07T02:51:42;10.30;99.90
27797;DHT22;15177;50.844;4.412;2023-04-07T02:54:08;10.10;99.90
27797;DHT22;15177;50.844;4.412;2023-04-07T02:56:33;10.20;99.90
27797;DHT22;15177;50.844;4.412;2023-04-07T02:58:59;10.10;99.90
27797;DHT22;15177;50.844;4.412;2023-04-07T03:01:26;10.10;99.90
27797;DHT22;15177;50.844;4.412;2023-04-07T03:03:52;10.10;99.90
27797;DHT22;15177;50.844;4.412;2023-04-07T03:06:17;10.00;99.90
27797;DHT22;15177;50.844;4.412;2023-04-07T03:08:43;10.00;99.90
27797;DHT22;15177;50.844;4.412;2023-04-07T03:11:09;10.00;99.90
27797;DHT22;15177;50.844;4.412;2023-04-07T03:13:34;10.00;99.90
27797;DHT22;15177;50.844;4.412;2023-04-07T03:16:00;10.00;99.90
27797;DHT22;15177;50.844;4.412;2023-04-07T03:18:26;10.00;99.90
27797;DHT22;15177;50.844;4.412;2023-04-07T03:20:51;10.00;99.90
27797;DHT22;15177;50.844;4.412;2023-04-07T03:23:19;10.00;99.90
27797;DHT22;15177;50.844;4.412;2023-04-07T03:25:45;10.00;99.90
27797;DHT22;15177;50.844;4.412;2023-04-07T03:28:10;10.00;99.90
27797;DHT22;15177;50.844;4.412;2023-04-07T03:30:36;10.00;99.90
27797;DHT22;15177;50.844;4.412;2023-04-07T03:33:02;10.00;99.90
27797;DHT22;15177;50.844;4.412;2023-04-07T03:35:28;10.00;99.90
27797;DHT22;15177;50.844;4.412;2023-04-07T03:37:53;10.00;99.90
27797;DHT22;15177;50.844;4.412;2023-04-07T03:40:19;10.00;99.90
27797;DHT22;15177;50.844;4.412;2023-04-07T03:42:45;10.00;99.90
27797;DHT22;15177;50.844;4.412;2023-04-07T03:45:11;9.90;99.90
27797;DHT22;15177;50.844;4.412;2023-04-07T03:47:36;9.90;99.90
27797;DHT22;15177;50.844;4.412;2023-04-07T03:50:02;9.90;99.90
27797;DHT22;15177;50.844;4.412;2023-04-07T03:52:28;10.00;99.90
27797;DHT22;15177;50.844;4.412;2023-04-07T03:54:53;10.10;99.90
27797;DHT22;15177;50.844;4.412;2023-04-07T03:57:19;10.00;99.90
27797;DHT22;15177;50.844;4.412;2023-04-07T03:59:45;10.10;99.90
27797;DHT22;15177;50.844;4.412;2023-04-07T04:02:12;10.00;99.90
27797;DHT22;15177;50.844;4.412;2023-04-07T04:04:38;10.20;99.90
27797;DHT22;15177;50.844;4.412;2023-04-07T04:07:03;10.20;99.90
27797;DHT22;15177;50.844;4.412;2023-04-07T04:09:29;10.00;99.90
27797;DHT22;15177;50.844;4.412;2023-04-07T04:11:55;9.90;99.90
27797;DHT22;15177;50.844;4.412;2023-04-07T04:14:21;9.90;99.90
27797;DHT22;15177;50.844;4.412;2023-04-07T04:16:47;9.90;99.90
27797;DHT22;15177;50.844;4.412;2023-04-07T04:19:12;10.00;99.90
27797;DHT22;15177;50.844;4.412;2023-04-07T04:21:38;10.20;99.90
27797;DHT22;15177;50.844;4.412;2023-04-07T04:24:03;10.10;99.90
27797;DHT22;15177;50.844;4.412;2023-04-07T04:26:29;10.00;99.90
27797;DHT22;15177;50.844;4.412;2023-04-07T04:28:55;10.10;99.90
27797;DHT22;15177;50.844;4.412;2023-04-07T04:31:20;10.00;99.90
27797;DHT22;15177;50.844;4.412;2023-04-07T04:33:46;10.10;99.90
27797;DHT22;15177;50.844;4.412;2023-04-07T04:36:12;10.20;99.90
27797;DHT22;15177;50.844;4.412;2023-04-07T04:38:37;10.00;99.90
27797;DHT22;15177;50.844;4.412;2023-04-07T04:41:03;10.20;99.90
27797;DHT22;15177;50.844;4.412;2023-04-07T04:43:29;10.00;99.90
27797;DHT22;15177;50.844;4.412;2023-04-07T04:45:55;10.00;99.90
27797;DHT22;15177;50.844;4.412;2023-04-07T04:48:21;10.10;99.90
27797;DHT22;15177;50.844;4.412;2023-04-07T04:50:46;10.00;99.90
27797;DHT22;15177;50.844;4.412;2023-04-07T04:53:12;9.90;99.90
27797;DHT22;15177;50.844;4.412;2023-04-07T04:55:38;10.10;99.90
27797;DHT22;15177;50.844;4.412;2023-04-07T04:58:07;10.00;99.90
27797;DHT22;15177;50.844;4.412;2023-04-07T05:00:32;10.00;99.90
27797;DHT22;15177;50.844;4.412;2023-04-07T05:02:58;10.00;99.90
27797;DHT22;15177;50.844;4.412;2023-04-07T05:05:24;9.90;99.90
27797;DHT22;15177;50.844;4.412;2023-04-07T05:07:50;9.70;99.90
27797;DHT22;15177;50.844;4.412;2023-04-07T05:10:15;9.90;99.90
27797;DHT22;15177;50.844;4.412;2023-04-07T05:12:41;9.90;99.90
27797;DHT22;15177;50.844;4.412;2023-04-07T05:15:07;9.90;99.90
27797;DHT22;15177;50.844;4.412;2023-04-07T05:17:34;9.80;99.90
27797;DHT22;15177;50.844;4.412;2023-04-07T05:20:00;9.80;99.90
27797;DHT22;15177;50.844;4.412;2023-04-07T05:22:26;9.70;99.90
27797;DHT22;15177;50.844;4.412;2023-04-07T05:24:51;9.70;99.90
27797;DHT22;15177;50.844;4.412;2023-04-07T05:27:17;9.80;99.90
27797;DHT22;15177;50.844;4.412;2023-04-07T05:29:43;9.80;99.90
27797;DHT22;15177;50.844;4.412;2023-04-07T05:32:08;9.80;99.90
27797;DHT22;15177;50.844;4.412;2023-04-07T05:34:34;9.70;99.90
27797;DHT22;15177;50.844;4.412;2023-04-07T05:36:59;9.70;99.90
27797;DHT22;15177;50.844;4.412;2023-04-07T05:39:25;9.70;99.90
27797;DHT22;15177;50.844;4.412;2023-04-07T05:41:51;9.70;99.90
27797;DHT22;15177;50.844;4.412;2023-04-07T05:44:17;9.60;99.90
27797;DHT22;15177;50.844;4.412;2023-04-07T05:46:42;9.60;99.90
27797;DHT22;15177;50.844;4.412;2023-04-07T05:49:08;9.60;99.90
27797;DHT22;15177;50.844;4.412;2023-04-07T05:51:33;9.70;99.90
27797;DHT22;15177;50.844;4.412;2023-04-07T05:54:01;9.70;99.90
27797;DHT22;15177;50.844;4.412;2023-04-07T05:56:28;9.80;99.90
27797;DHT22;15177;50.844;4.412;2023-04-07T05:58:53;9.90;99.90
27797;DHT22;15177;50.844;4.412;2023-04-07T06:01:19;9.80;99.90
27797;DHT22;15177;50.844;4.412;2023-04-07T06:03:45;9.90;99.90
27797;DHT22;15177;50.844;4.412;2023-04-07T06:06:11;10.00;99.90
27797;DHT22;15177;50.844;4.412;2023-04-07T06:08:36;10.10;99.90
27797;DHT22;15177;50.844;4.412;2023-04-07T06:11:02;10.00;99.90
27797;DHT22;15177;50.844;4.412;2023-04-07T06:13:27;10.10;99.90
27797;DHT22;15177;50.844;4.412;2023-04-07T06:15:56;10.10;99.90
27797;DHT22;15177;50.844;4.412;2023-04-07T06:18:22;10.10;99.90
27797;DHT22;15177;50.844;4.412;2023-04-07T06:20:47;10.20;99.90
27797;DHT22;15177;50.844;4.412;2023-04-07T06:23:13;10.30;99.90
27797;DHT22;15177;50.844;4.412;2023-04-07T06:25:39;10.30;99.90
27797;DHT22;15177;50.844;4.412;2023-04-07T06:28:04;10.40;99.90
27797;DHT22;15177;50.844;4.412;2023-04-07T06:30:30;10.50;99.90
27797;DHT22;15177;50.844;4.412;2023-04-07T06:32:56;10.50;99.90
27797;DHT22;15177;50.844;4.412;2023-04-07T06:35:22;10.60;99.90
27797;DHT22;15177;50.844;4.412;2023-04-07T06:37:48;10.60;99.90
27797;DHT22;15177;50.844;4.412;2023-04-07T06:40:14;10.80;99.90
27797;DHT22;15177;50.844;4.412;2023-04-07T06:42:40;10.80;99.90
27797;DHT22;15177;50.844;4.412;2023-04-07T06:45:06;10.90;99.90
27797;DHT22;15177;50.844;4.412;2023-04-07T06:47:32;11.10;99.90
27797;DHT22;15177;50.844;4.412;2023-04-07T06:49:58;11.10;99.90
27797;DHT22;15177;50.844;4.412;2023-04-07T06:52:23;11.00;99.90
27797;DHT22;15177;50.844;4.412;2023-04-07T06:54:49;11.00;99.90
27797;DHT22;15177;50.844;4.412;2023-04-07T06:57:15;10.80;99.90
27797;DHT22;15177;50.844;4.412;2023-04-07T06:59:40;10.70;99.90
27797;DHT22;15177;50.844;4.412;2023-04-07T07:02:06;10.50;99.90
27797;DHT22;15177;50.844;4.412;2023-04-07T07:04:33;10.50;99.90
27797;DHT22;15177;50.844;4.412;2023-04-07T07:06:59;10.60;99.90
27797;DHT22;15177;50.844;4.412;2023-04-07T07:09:24;10.70;99.90
27797;DHT22;15177;50.844;4.412;2023-04-07T07:11:51;10.70;99.90
27797;DHT22;15177;50.844;4.412;2023-04-07T07:14:17;10.80;99.90
27797;DHT22;15177;50.844;4.412;2023-04-07T07:16:43;10.80;99.90
27797;DHT22;15177;50.844;4.412;2023-04-07T07:19:08;10.70;99.90
27797;DHT22;15177;50.844;4.412;2023-04-07T07:21:34;10.70;99.90
27797;DHT22;15177;50.844;4.412;2023-04-07T07:24:00;10.80;99.90
27797;DHT22;15177;50.844;4.412;2023-04-07T07:26:26;10.80;99.90
27797;DHT22;15177;50.844;4.412;2023-04-07T07:28:52;10.90;99.90
27797;DHT22;15177;50.844;4.412;2023-04-07T07:31:18;11.00;99.90
27797;DHT22;15177;50.844;4.412;2023-04-07T07:33:43;11.10;99.90
27797;DHT22;15177;50.844;4.412;2023-04-07T07:36:10;11.10;99.90
27797;DHT22;15177;50.844;4.412;2023-04-07T07:38:37;11.10;99.90
27797;DHT22;15177;50.844;4.412;2023-04-07T07:41:03;11.30;99.90
27797;DHT22;15177;50.844;4.412;2023-04-07T07:43:28;11.20;99.90
27797;DHT22;15177;50.844;4.412;2023-04-07T07:45:54;11.20;99.90
27797;DHT22;15177;50.844;4.412;2023-04-07T07:48:20;11.20;99.90
27797;DHT22;15177;50.844;4.412;2023-04-07T07:50:46;11.40;99.90
27797;DHT22;15177;50.844;4.412;2023-04-07T07:53:12;11.30;99.90
27797;DHT22;15177;50.844;4.412;2023-04-07T07:55:38;11.20;99.90
27797;DHT22;15177;50.844;4.412;2023-04-07T07:58:03;11.20;99.90
27797;DHT22;15177;50.844;4.412;2023-04-07T08:00:29;11.20;99.90
27797;DHT22;15177;50.844;4.412;2023-04-07T08:02:55;11.10;99.90
27797;DHT22;15177;50.844;4.412;2023-04-07T08:05:21;11.00;99.90
27797;DHT22;15177;50.844;4.412;2023-04-07T08:07:46;11.10;99.90
27797;DHT22;15177;50.844;4.412;2023-04-07T08:10:13;10.90;99.90
27797;DHT22;15177;50.844;4.412;2023-04-07T08:12:39;11.00;99.90
27797;DHT22;15177;50.844;4.412;2023-04-07T08:15:05;11.10;99.90
27797;DHT22;15177;50.844;4.412;2023-04-07T08:17:34;11.20;99.90
27797;DHT22;15177;50.844;4.412;2023-04-07T08:20:00;11.10;99.90
27797;DHT22;15177;50.844;4.412;2023-04-07T08:22:26;11.20;99.90
27797;DHT22;15177;50.844;4.412;2023-04-07T08:24:52;11.10;99.90
27797;DHT22;15177;50.844;4.412;2023-04-07T08:27:17;11.00;99.90
27797;DHT22;15177;50.844;4.412;2023-04-07T08:29:43;10.90;99.90
27797;DHT22;15177;50.844;4.412;2023-04-07T08:32:09;10.90;99.90
27797;DHT22;15177;50.844;4.412;2023-04-07T08:34:34;10.90;99.90
27797;DHT22;15177;50.844;4.412;2023-04-07T08:37:00;10.70;99.90
27797;DHT22;15177;50.844;4.412;2023-04-07T08:39:26;10.70;99.90
27797;DHT22;15177;50.844;4.412;2023-04-07T08:41:54;10.80;99.90
27797;DHT22;15177;50.844;4.412;2023-04-07T08:44:21;10.90;99.90
27797;DHT22;15177;50.844;4.412;2023-04-07T08:46:47;10.90;99.90
27797;DHT22;15177;50.844;4.412;2023-04-07T08:49:15;10.90;99.90
27797;DHT22;15177;50.844;4.412;2023-04-07T08:51:46;11.00;99.90
27797;DHT22;15177;50.844;4.412;2023-04-07T08:54:13;11.00;99.90
27797;DHT22;15177;50.844;4.412;2023-04-07T08:56:41;10.90;99.90
27797;DHT22;15177;50.844;4.412;2023-04-07T08:59:09;11.00;99.90
27797;DHT22;15177;50.844;4.412;2023-04-07T09:01:36;11.00;99.90
27797;DHT22;15177;50.844;4.412;2023-04-07T09:04:03;11.20;99.90
27797;DHT22;15177;50.844;4.412;2023-04-07T09:06:30;11.30;99.90
27797;DHT22;15177;50.844;4.412;2023-04-07T09:09:00;11.50;99.90
27797;DHT22;15177;50.844;4.412;2023-04-07T09:11:27;12.00;99.90
27797;DHT22;15177;50.844;4.412;2023-04-07T09:13:53;12.30;99.90
27797;DHT22;15177;50.844;4.412;2023-04-07T09:16:19;12.60;99.90
27797;DHT22;15177;50.844;4.412;2023-04-07T09:18:45;12.90;99.90
27797;DHT22;15177;50.844;4.412;2023-04-07T09:21:11;13.50;99.90
27797;DHT22;15177;50.844;4.412;2023-04-07T09:23:38;15.10;99.90
27797;DHT22;15177;50.844;4.412;2023-04-07T09:26:23;16.10;99.90
27797;DHT22;15177;50.844;4.412;2023-04-07T09:28:56;16.80;99.90
27797;DHT22;15177;50.844;4.412;2023-04-07T09:31:22;17.60;99.90
27797;DHT22;15177;50.844;4.412;2023-04-07T09:33:50;18.40;99.90
27797;DHT22;15177;50.844;4.412;2023-04-07T09:36:17;18.90;99.90
27797;DHT22;15177;50.844;4.412;2023-04-07T09:38:44;18.70;99.90
27797;DHT22;15177;50.844;4.412;2023-04-07T09:41:11;18.30;99.90
27797;DHT22;15177;50.844;4.412;2023-04-07T09:43:38;17.50;99.90
27797;DHT22;15177;50.844;4.412;2023-04-07T09:46:09;16.60;99.90
27797;DHT22;15177;50.844;4.412;2023-04-07T09:48:35;16.00;99.90
27797;DHT22;15177;50.844;4.412;2023-04-07T09:51:28;15.70;99.90
27797;DHT22;15177;50.844;4.412;2023-04-07T09:53:53;15.30;99.90
27797;DHT22;15177;50.844;4.412;2023-04-07T09:56:20;14.90;99.90
27797;DHT22;15177;50.844;4.412;2023-04-07T09:58:49;14.90;99.90
27797;DHT22;15177;50.844;4.412;2023-04-07T10:01:20;15.20;99.90
27797;DHT22;15177;50.844;4.412;2023-04-07T10:03:48;15.80;99.90
27797;DHT22;15177;50.844;4.412;2023-04-07T10:06:15;16.60;99.90
27797;DHT22;15177;50.844;4.412;2023-04-07T10:08:41;17.40;99.90
27797;DHT22;15177;50.844;4.412;2023-04-07T10:11:08;18.60;99.90
27797;DHT22;15177;50.844;4.412;2023-04-07T10:13:36;19.10;99.90
27797;DHT22;15177;50.844;4.412;2023-04-07T10:16:03;18.60;99.90
27797;DHT22;15177;50.844;4.412;2023-04-07T10:18:32;17.80;99.90
27797;DHT22;15177;50.844;4.412;2023-04-07T10:21:07;16.90;99.90
27797;DHT22;15177;50.844;4.412;2023-04-07T10:26:18;16.20;99.90
27797;DHT22;15177;50.844;4.412;2023-04-07T10:28:47;16.60;99.90
27797;DHT22;15177;50.844;4.412;2023-04-07T10:31:14;17.00;99.90
27797;DHT22;15177;50.844;4.412;2023-04-07T10:33:49;17.30;99.90
27797;DHT22;15177;50.844;4.412;2023-04-07T10:36:19;17.50;99.90
27797;DHT22;15177;50.844;4.412;2023-04-07T10:41:40;16.90;99.90
27797;DHT22;15177;50.844;4.412;2023-04-07T10:44:30;16.00;99.90
27797;DHT22;15177;50.844;4.412;2023-04-07T10:49:21;14.50;99.90
27797;DHT22;15177;50.844;4.412;2023-04-07T10:54:35;13.80;99.90
27797;DHT22;15177;50.844;4.412;2023-04-07T10:57:05;13.60;99.90
27797;DHT22;15177;50.844;4.412;2023-04-07T10:59:36;13.40;99.90
27797;DHT22;15177;50.844;4.412;2023-04-07T11:04:44;13.10;99.90
27797;DHT22;15177;50.844;4.412;2023-04-07T11:07:12;13.00;99.90
27797;DHT22;15177;50.844;4.412;2023-04-07T11:09:39;13.00;99.90
27797;DHT22;15177;50.844;4.412;2023-04-07T11:12:05;13.10;99.90
27797;DHT22;15177;50.844;4.412;2023-04-07T11:14:32;13.20;99.90
27797;DHT22;15177;50.844;4.412;2023-04-07T11:16:59;13.50;99.90
27797;DHT22;15177;50.844;4.412;2023-04-07T11:19:27;13.90;99.90
27797;DHT22;15177;50.844;4.412;2023-04-07T11:22:13;14.20;99.90
27797;DHT22;15177;50.844;4.412;2023-04-07T11:24:38;14.10;99.90
27797;DHT22;15177;50.844;4.412;2023-04-07T11:27:04;14.20;99.90
27797;DHT22;15177;50.844;4.412;2023-04-07T11:29:32;14.50;99.90
27797;DHT22;15177;50.844;4.412;2023-04-07T11:31:59;14.50;99.90
27797;DHT22;15177;50.844;4.412;2023-04-07T11:34:33;14.70;99.90
27797;DHT22;15177;50.844;4.412;2023-04-07T11:37:19;14.50;99.90
27797;DHT22;15177;50.844;4.412;2023-04-07T11:39:55;14.30;99.90
27797;DHT22;15177;50.844;4.412;2023-04-07T11:42:37;14.20;99.90
27797;DHT22;15177;50.844;4.412;2023-04-07T11:45:05;14.10;99.90
27797;DHT22;15177;50.844;4.412;2023-04-07T11:47:35;13.90;99.90
27797;DHT22;15177;50.844;4.412;2023-04-07T11:50:01;13.40;99.90
27797;DHT22;15177;50.844;4.412;2023-04-07T11:52:27;13.30;99.90
27797;DHT22;15177;50.844;4.412;2023-04-07T11:54:53;13.30;99.90
27797;DHT22;15177;50.844;4.412;2023-04-07T11:57:26;13.30;99.90
27797;DHT22;15177;50.844;4.412;2023-04-07T12:00:09;13.30;99.90
27797;DHT22;15177;50.844;4.412;2023-04-07T12:02:36;13.50;99.90
27797;DHT22;15177;50.844;4.412;2023-04-07T12:05:02;13.70;99.90
27797;DHT22;15177;50.844;4.412;2023-04-07T12:07:28;13.90;99.90
27797;DHT22;15177;50.844;4.412;2023-04-07T12:09:54;14.10;99.90
27797;DHT22;15177;50.844;4.412;2023-04-07T12:12:26;14.20;99.90
27797;DHT22;15177;50.844;4.412;2023-04-07T12:14:54;14.10;99.90
27797;DHT22;15177;50.844;4.412;2023-04-07T12:17:24;14.20;99.90
27797;DHT22;15177;50.844;4.412;2023-04-07T12:19:51;14.20;99.90
27797;DHT22;15177;50.844;4.412;2023-04-07T12:22:17;13.90;99.90
27797;DHT22;15177;50.844;4.412;2023-04-07T12:24:43;13.60;99.90
27797;DHT22;15177;50.844;4.412;2023-04-07T12:27:08;13.50;99.90
27797;DHT22;15177;50.844;4.412;2023-04-07T12:29:34;13.00;99.90
27797;DHT22;15177;50.844;4.412;2023-04-07T12:32:02;12.80;99.90
27797;DHT22;15177;50.844;4.412;2023-04-07T12:34:28;12.70;99.90
27797;DHT22;15177;50.844;4.412;2023-04-07T12:36:53;12.60;99.90
27797;DHT22;15177;50.844;4.412;2023-04-07T12:39:19;12.60;99.90
27797;DHT22;15177;50.844;4.412;2023-04-07T12:41:45;12.60;99.90
27797;DHT22;15177;50.844;4.412;2023-04-07T12:44:13;12.70;99.90
27797;DHT22;15177;50.844;4.412;2023-04-07T12:46:39;12.80;99.90
27797;DHT22;15177;50.844;4.412;2023-04-07T12:49:04;12.90;99.90
27797;DHT22;15177;50.844;4.412;2023-04-07T12:51:31;12.90;99.90
27797;DHT22;15177;50.844;4.412;2023-04-07T12:54:01;13.00;99.90
27797;DHT22;15177;50.844;4.412;2023-04-07T12:56:28;13.10;99.90
27797;DHT22;15177;50.844;4.412;2023-04-07T12:58:53;13.20;99.90
27797;DHT22;15177;50.844;4.412;2023-04-07T13:01:20;13.20;99.90
27797;DHT22;15177;50.844;4.412;2023-04-07T13:03:45;13.30;99.90
27797;DHT22;15177;50.844;4.412;2023-04-07T13:06:11;13.30;99.90
27797;DHT22;15177;50.844;4.412;2023-04-07T13:08:38;13.00;99.90
27797;DHT22;15177;50.844;4.412;2023-04-07T13:11:03;12.80;99.90
27797;DHT22;15177;50.844;4.412;2023-04-07T13:13:30;12.50;99.90
27797;DHT22;15177;50.844;4.412;2023-04-07T13:15:56;12.40;99.90
27797;DHT22;15177;50.844;4.412;2023-04-07T13:18:21;12.20;99.90
27797;DHT22;15177;50.844;4.412;2023-04-07T13:20:47;12.20;99.90
27797;DHT22;15177;50.844;4.412;2023-04-07T13:23:13;12.20;99.90
27797;DHT22;15177;50.844;4.412;2023-04-07T13:25:39;12.30;99.90
27797;DHT22;15177;50.844;4.412;2023-04-07T13:28:04;12.40;99.90
27797;DHT22;15177;50.844;4.412;2023-04-07T13:30:30;12.40;99.90
27797;DHT22;15177;50.844;4.412;2023-04-07T13:32:56;12.50;99.90
27797;DHT22;15177;50.844;4.412;2023-04-07T13:35:22;12.40;99.90
27797;DHT22;15177;50.844;4.412;2023-04-07T13:37:48;12.30;99.90
27797;DHT22;15177;50.844;4.412;2023-04-07T13:40:13;12.30;99.90
27797;DHT22;15177;50.844;4.412;2023-04-07T13:42:39;12.40;99.90
27797;DHT22;15177;50.844;4.412;2023-04-07T13:45:05;12.50;99.90
27797;DHT22;15177;50.844;4.412;2023-04-07T13:47:31;12.40;99.90
27797;DHT22;15177;50.844;4.412;2023-04-07T13:50:02;12.50;99.90
27797;DHT22;15177;50.844;4.412;2023-04-07T13:52:28;12.50;99.90
27797;DHT22;15177;50.844;4.412;2023-04-07T13:54:54;12.50;99.90
27797;DHT22;15177;50.844;4.412;2023-04-07T13:57:21;12.50;99.90
27797;DHT22;15177;50.844;4.412;2023-04-07T13:59:49;12.50;99.90
27797;DHT22;15177;50.844;4.412;2023-04-07T14:02:17;12.40;99.90
27797;DHT22;15177;50.844;4.412;2023-04-07T14:04:42;12.30;99.90
27797;DHT22;15177;50.844;4.412;2023-04-07T14:07:08;12.30;99.90
27797;DHT22;15177;50.844;4.412;2023-04-07T14:09:34;12.30;99.90
27797;DHT22;15177;50.844;4.412;2023-04-07T14:11:59;12.40;99.90
27797;DHT22;15177;50.844;4.412;2023-04-07T14:14:25;12.40;99.90
27797;DHT22;15177;50.844;4.412;2023-04-07T14:16:51;12.50;99.90
27797;DHT22;15177;50.844;4.412;2023-04-07T14:19:19;12.70;99.90
27797;DHT22;15177;50.844;4.412;2023-04-07T14:21:47;12.60;99.90
27797;DHT22;15177;50.844;4.412;2023-04-07T14:24:13;12.50;99.90
27797;DHT22;15177;50.844;4.412;2023-04-07T14:26:38;12.50;99.90
27797;DHT22;15177;50.844;4.412;2023-04-07T14:29:04;12.50;99.90
27797;DHT22;15177;50.844;4.412;2023-04-07T14:31:30;12.50;99.90
27797;DHT22;15177;50.844;4.412;2023-04-07T14:33:55;12.50;99.90
27797;DHT22;15177;50.844;4.412;2023-04-07T14:36:21;12.60;99.90
27797;DHT22;15177;50.844;4.412;2023-04-07T14:38:46;12.80;99.90
27797;DHT22;15177;50.844;4.412;2023-04-07T14:41:14;12.60;99.90
27797;DHT22;15177;50.844;4.412;2023-04-07T14:43:41;12.50;99.90
27797;DHT22;15177;50.844;4.412;2023-04-07T14:46:07;12.50;99.90
27797;DHT22;15177;50.844;4.412;2023-04-07T14:48:32;12.50;99.90
27797;DHT22;15177;50.844;4.412;2023-04-07T14:50:58;12.50;99.90
27797;DHT22;15177;50.844;4.412;2023-04-07T14:53:24;12.40;99.90
27797;DHT22;15177;50.844;4.412;2023-04-07T14:55:50;12.50;99.90
27797;DHT22;15177;50.844;4.412;2023-04-07T14:58:15;12.70;99.90
27797;DHT22;15177;50.844;4.412;2023-04-07T15:00:41;12.70;99.90
27797;DHT22;15177;50.844;4.412;2023-04-07T15:03:07;12.90;99.90
27797;DHT22;15177;50.844;4.412;2023-04-07T15:05:32;12.80;99.90
27797;DHT22;15177;50.844;4.412;2023-04-07T15:08:01;12.70;99.90
27797;DHT22;15177;50.844;4.412;2023-04-07T15:10:30;12.70;99.90
27797;DHT22;15177;50.844;4.412;2023-04-07T15:12:59;12.70;99.90
27797;DHT22;15177;50.844;4.412;2023-04-07T15:15:25;12.60;99.90
27797;DHT22;15177;50.844;4.412;2023-04-07T15:17:51;12.60;99.90
27797;DHT22;15177;50.844;4.412;2023-04-07T15:20:16;12.60;99.90
27797;DHT22;15177;50.844;4.412;2023-04-07T15:22:42;12.60;99.90
27797;DHT22;15177;50.844;4.412;2023-04-07T15:25:07;12.60;99.90
27797;DHT22;15177;50.844;4.412;2023-04-07T15:27:33;12.60;99.90
27797;DHT22;15177;50.844;4.412;2023-04-07T15:29:59;12.50;99.90
27797;DHT22;15177;50.844;4.412;2023-04-07T15:32:25;12.40;99.90
27797;DHT22;15177;50.844;4.412;2023-04-07T15:34:50;12.30;99.90
27797;DHT22;15177;50.844;4.412;2023-04-07T15:37:17;12.40;99.90
27797;DHT22;15177;50.844;4.412;2023-04-07T15:39:43;12.40;99.90
27797;DHT22;15177;50.844;4.412;2023-04-07T15:42:09;12.30;99.90
27797;DHT22;15177;50.844;4.412;2023-04-07T15:44:37;12.30;99.90
27797;DHT22;15177;50.844;4.412;2023-04-07T15:47:04;12.40;99.90
27797;DHT22;15177;50.844;4.412;2023-04-07T15:49:31;12.40;99.90
27797;DHT22;15177;50.844;4.412;2023-04-07T15:51:56;12.30;99.90
27797;DHT22;15177;50.844;4.412;2023-04-07T15:54:22;12.40;99.90